Pagrindinis puslapis
METAR-TAF:

METAR-TAF

Oro uostai :

Uagadugu oro uostas

Uagadugu, Burkina Fasas

platuma: 12-21N, ilguma: 001-31W, Aukštis: 316 m

Dabartinis oras

Ataskaita buvo paskelbta 1 valandą ir 24 minutes, ne 04:00 UTC
Vėjas 2 kt iš Pietų
Temperatūra 29°C
Drėgmė 62%
Slėgis 1011 hPa
Matomumas 10 km arba daugiau
nėra debesų žemiau 1500 m ir nėra kamuolinių lietaus debesų

METAR: DFFD 290400Z 18002KT CAVOK 29/21 Q1011 NOSIG

Laikas: 05:24 (05:24 UTC)

Prognozė

Ataskaita buvo paskelbta 6 valandos ir 24 minutes, ne 23:00 UTC
Prognozė galioja nuo 29 metu 00 UTC su 30 metu 06 UTC
Vėjas 8 kt iš Vakarų/Pietvakarių
Matomumas 10 km arba daugiau
nėra debesų žemiau 1500 m ir nėra kamuolinių lietaus debesų
Tikimybė 30% :
Laikinai
nuo 29 metu 17 UTC su 29 metu 24 UTC
Matomumas: 4000 m
Išsisklaidę debesys ne aukštis 2300 ft
Mažai debesys ne aukštis 3600 ft, Liūtiniai kamuoliniai debesys.
perkūnija, lietus

TAF: DFFD 282300Z 2900/3006 25008KT CAVOK PROB30 TEMPO 2917/2924 4000 TSRA SCT023 FEW036CB

Orai ataskaitas ir orų prognozės (METAR, TAF).

turimą stotys yra geltonos ir raudonos taškus žemėlapyje.

Perkelti pele per norėdami pamatyti stoties vardą.

Tada spustelėkite, norėdami matyti oro stebėjimo ir prognozės.

Norėdami pakeisti žemėlapį: spustelėkite ant žalios mygtukų su juodo kryžiaus žemyn,; žalią mygtuką su brūkšneliu, jei norite nutolinti; arba žalių rodyklių gretimoms žemėlapius.


METAR-TAF: